Main page
METAR-TAF:

METAR-TAF

Airports :

Sukhothai Airport

Sukhothai, Thailand

latitude: 17-14-16N, longitude: 099-49-05E, elevation: 55 m

Current weather observation

The report was made 10 hours and 31 minutes ago, at 11:00 UTC
Wind 3 kt from the West/Northwest
Temperature 29°C
Humidity 79%
Pressure 1010 hPa
Visibility 10 km or more
Few clouds at a height of 2500 ft

METAR: VTPO 011100Z 30003KT 9999 FEW025 29/25 Q1010 NOSIG

Time: 04:31 (21:31 UTC)

Forecast

The report was made 4 hours and 31 minutes ago, at 17:00 UTC
Forecast valid from 01 at 18 UTC to 02 at 18 UTC
Wind 5 kt from the North
Visibility 10 km or more
Few clouds at a height of 2500 ft

TAF: VTPO 011700Z 0118/0218 36005KT 9999 FEW025

Weather observations and forecasts of more than 4000 airports (METAR and TAF reports).

The available stations are represented by yellow and red dots on the map.

Hover mouse over dot to see the name of the station.

Then click to see weather observations and forecasts.

To change the map : click on the green buttons with a black cross to zoom in, on the green button with a dash to zoom out, or on the green arrows for adjacent maps.


METAR-TAF: